Latest Weather Observations for Bairnsdale

IDV60801

Issued at 1:35 pm EDT Thursday 27 November 2014 (issued every 30 minutes, with the page automatically refreshed every 10 minutes)

About weather observations | Map of weather stations | Latest weather observations for VIC | Other Formats
Station Details ID: 085279 Name: BAIRNSDALE AIRPORT Lat: -37.88 Lon: 147.57 Height: 49.4 m
Data from the previous 72 hours. | See also: Recent months at Bairnsdale
Date/Time
EDT
Temp
°C
App
Temp
°C
Dew
Point
Rel
Hum
%
Delta-T
°C
Wind Press
QNH
hPa
Press
MSL
hPa
Rain
since 9 am
mm
Dir
 
Spd
km/h
Gust
km/h
Spd
kts
Gust
kts
27/01:30pm 19.2 15.8 7.6 47 5.9 SSE 15 26 8 14 1024.1 1024.1 0.0
27/01:00pm 19.3 15.1 7.4 46 6.0 SW 19 22 10 12 1024.2 1024.2 0.0
27/12:30pm 18.5 14.7 6.0 44 6.2 WSW 15 20 8 11 1024.4 1024.4 0.0
27/12:00pm 17.6 13.0 5.5 45 5.8 SSW 19 24 10 13 1024.7 1024.7 0.0
27/11:30am 17.5 13.9 6.7 49 5.4 W 15 30 8 16 1024.9 1024.9 0.0
27/11:00am 16.8 12.9 6.9 52 4.9 WSW 17 28 9 15 1024.9 1024.9 0.0
27/10:30am 16.5 12.6 6.9 53 4.8 WSW 17 22 9 12 1025.0 1025.0 0.0
27/10:00am 15.5 11.8 6.5 55 4.4 W 15 24 8 13 1025.2 1025.2 0.0
27/09:30am 14.9 10.4 6.0 55 4.3 W 19 26 10 14 1025.5 1025.5 0.0
27/09:00am 14.7 10.6 6.0 56 4.1 WSW 17 28 9 15 1025.5 1025.5 0.0
27/08:30am 13.5 8.7 5.7 59 3.7 W 20 30 11 16 1025.6 1025.6 0.0
27/08:00am 12.9 9.1 5.8 62 3.3 W 15 24 8 13 1025.4 1025.4 0.0
27/07:30am 12.5 9.2 6.5 67 2.9 W 13 19 7 10 1025.1 1025.1 0.0
27/07:00am 11.7 8.8 6.4 70 2.5 W 11 17 6 9 1024.8 1024.8 0.0
27/06:30am 11.1 8.2 6.5 73 2.2 W 11 13 6 7 1024.4 1024.4 0.0
27/06:00am 11.0 8.1 6.4 73 2.2 W 11 13 6 7 1024.2 1024.2 0.0
27/05:30am 10.9 7.9 6.1 72 2.2 W 11 13 6 7 1024.0 1024.0 0.0
27/05:00am 10.9 7.9 6.1 72 2.2 W 11 15 6 8 1023.8 1023.8 0.0
27/04:30am 10.9 8.0 6.5 74 2.1 WNW 11 15 6 8 1023.6 1023.6 0.0
27/04:00am 11.2 8.1 5.5 68 2.6 W 11 15 6 8 1023.3 1023.3 0.0
27/03:30am 11.4 7.2 5.7 68 2.6 SW 17 22 9 12 1023.3 1023.3 0.0
27/03:00am 11.3 7.9 6.0 70 2.5 WSW 13 17 7 9 1023.4 1023.4 0.0
27/02:30am 11.2 8.3 6.3 72 2.3 W 11 15 6 8 1023.5 1023.5 0.0
27/02:00am 11.4 8.1 6.3 71 2.4 W 13 19 7 10 1023.6 1023.6 0.0
27/01:30am 11.3 7.7 6.8 74 2.1 W 15 20 8 11 1023.6 1023.6 0.0
27/01:00am 11.3 8.2 7.4 77 1.9 W 13 17 7 9 1023.8 1023.8 0.0
27/12:30am 10.8 7.0 7.5 80 1.6 WSW 17 22 9 12 1023.8 1023.8 0.0
27/12:00am 10.7 8.6 8.3 85 1.2 WSW 9 13 5 7 1023.8 1023.8 0.0
 
Date/Time
EDT
Temp
°C
App
Temp
°C
Dew
Point
Rel
Hum
%
Delta-T
°C
Wind Press
QNH
hPa
Press
MSL
hPa
Rain
since 9 am
mm
Dir
 
Spd
km/h
Gust
km/h
Spd
kts
Gust
kts
26/11:30pm 10.3 8.2 8.4 88 0.9 SW 9 11 5 6 1023.6 1023.6 0.0
26/11:00pm 10.5 8.9 7.9 84 1.3 SSW 6 11 3 6 1023.5 1023.5 0.0
26/10:30pm 11.5 9.5 8.5 82 1.5 SW 9 15 5 8 1023.5 1023.5 0.0
26/10:00pm 12.5 8.5 8.4 76 2.0 SSW 19 24 10 13 1022.9 1022.9 0.0
26/09:30pm 14.8 10.8 9.2 69 2.9 WSW 20 26 11 14 1022.6 1022.6 0.0
26/09:00pm 13.5 12.5 10.9 84 1.4 WNW 7 11 4 6 1022.1 1022.1 0.0
26/08:30pm 13.7 12.4 10.1 79 1.9 NW 7 9 4 5 1021.9 1021.9 0.0
26/08:00pm 14.8 13.3 10.6 76 2.2 SW 9 13 5 7 1021.5 1021.5 0.0
26/07:30pm 15.6 12.2 10.6 72 2.7 SW 19 22 10 12 1021.2 1021.2 0.0
26/07:00pm 16.7 12.9 11.2 70 3.0 SW 22 28 12 15 1020.8 1020.8 0.0
26/06:30pm 17.6 13.4 11.2 66 3.5 SW 24 35 13 19 1020.3 1020.3 0.0
26/06:00pm 17.9 12.7 11.5 66 3.5 SSW 30 41 16 22 1020.0 1020.0 0.0
26/05:30pm 18.1 12.8 11.4 65 3.7 SSW 30 37 16 20 1019.8 1019.8 0.0
26/05:00pm 20.5 14.0 10.3 52 5.5 SW 35 44 19 24 1019.5 1019.5 0.0
26/04:30pm 20.9 15.7 10.1 50 5.8 SW 28 39 15 21 1019.5 1019.5 0.0
26/04:00pm 20.3 14.4 9.2 49 5.9 WSW 30 39 16 21 1019.7 1019.7 0.0
26/03:30pm 20.6 16.0 9.8 50 5.8 WSW 24 35 13 19 1019.6 1019.6 0.0
26/03:00pm 20.6 16.1 10.1 51 5.7 WSW 24 33 13 18 1019.6 1019.6 0.0
26/02:30pm 20.3 14.8 10.7 54 5.2 SW 30 39 16 21 1019.7 1019.7 0.0
26/02:00pm 18.8 12.9 9.0 53 5.1 WSW 30 37 16 20 1019.6 1019.6 0.0
26/01:30pm 19.7 13.7 8.7 49 5.8 SW 30 41 16 22 1019.6 1019.6 0.0
26/01:00pm 19.2 13.9 8.5 50 5.5 SW 26 37 14 20 1019.8 1019.8 0.0
26/12:30pm 18.8 13.5 8.5 51 5.3 SW 26 35 14 19 1019.9 1019.9 0.0
26/12:00pm 18.7 14.0 7.8 49 5.6 W 22 32 12 17 1019.9 1019.9 0.0
26/11:30am 18.5 13.3 8.7 53 5.1 WSW 26 35 14 19 1019.9 1019.9 0.0
26/11:00am 18.9 14.8 8.8 52 5.3 WSW 20 32 11 17 1019.9 1019.9 0.0
26/10:30am 17.3 13.3 8.2 55 4.6 WSW 19 24 10 13 1020.1 1020.1 0.0
26/10:00am 17.0 13.9 8.9 59 4.2 WSW 15 20 8 11 1020.2 1020.2 0.0
26/09:30am 15.9 11.7 8.4 61 3.8 SW 20 28 11 15 1020.3 1020.3 0.0
26/09:00am 14.9 11.2 7.9 63 3.5 WSW 17 20 9 11 1020.6 1020.6 0.0
26/08:30am 14.2 12.9 10.0 76 2.2 W 7 13 4 7 1020.5 1020.5 0.0
26/08:00am 11.8 11.9 10.2 90 0.8 CALM 0 2 0 1 1020.3 1020.3 0.0
26/07:30am 10.8 9.6 9.7 93 0.6 NW 6 7 3 4 1020.0 1020.0 0.0
26/07:00am 9.6 7.9 8.5 93 0.5 NW 7 9 4 5 1019.9 1019.9 0.0
26/06:30am 8.8 6.5 7.3 90 0.7 NW 9 11 5 6 1019.7 1019.7 0.0
26/06:00am 8.8 6.8 7.3 90 0.7 W 7 9 4 5 1019.5 1019.5 0.0
26/05:30am 8.5 6.5 7.3 92 0.6 W 7 7 4 4 1019.3 1019.2 0.0
26/05:00am 8.6 6.7 6.9 89 0.8 WNW 6 7 3 4 1019.3 1019.2 0.0
26/04:30am 8.7 6.7 7.0 89 0.8 WNW 7 9 4 5 1019.3 1019.2 0.0
26/04:00am 8.9 7.0 7.4 90 0.7 WNW 7 13 4 7 1019.1 1019.0 0.0
26/03:30am 8.7 6.4 7.3 91 0.7 N 9 9 5 5 1019.3 1019.2 0.0
26/03:00am 9.2 6.9 7.6 90 0.8 NNW 9 9 5 5 1019.4 1019.4 0.0
26/02:30am 8.4 5.9 6.7 89 0.8 NW 9 11 5 6 1019.7 1019.7 0.0
26/02:00am 8.9 6.5 6.9 87 0.9 NNW 9 11 5 6 1019.9 1019.9 0.0
26/01:30am 8.9 6.5 6.9 87 0.9 NW 9 13 5 7 1020.2 1020.2 0.0
26/01:00am 9.8 7.4 7.2 84 1.2 NNW 9 11 5 6 1020.4 1020.4 0.0
26/12:30am 10.2 7.9 7.4 83 1.3 NNW 9 11 5 6 1020.8 1020.8 0.0
26/12:00am 11.0 8.4 7.7 80 1.6 WNW 11 17 6 9 1020.8 1020.8 0.0
 
Date/Time
EDT
Temp
°C
App
Temp
°C
Dew
Point
Rel
Hum
%
Delta-T
°C
Wind Press
QNH
hPa
Press
MSL
hPa
Rain
since 9 am
mm
Dir
 
Spd
km/h
Gust
km/h
Spd
kts
Gust
kts
25/11:30pm 11.3 8.3 7.6 78 1.8 WNW 13 17 7 9 1021.0 1021.0 0.0
25/11:00pm 11.6 9.0 7.7 77 1.9 WNW 11 15 6 8 1021.0 1021.0 0.0
25/10:30pm 12.8 9.8 7.9 72 2.4 WNW 13 20 7 11 1020.7 1020.7 0.0
25/10:00pm 13.3 10.0 8.0 70 2.6 W 15 22 8 12 1020.4 1020.4 0.0
25/09:30pm 13.6 10.6 7.8 68 2.9 W 13 17 7 9 1020.1 1020.1 0.0
25/09:00pm 14.5 12.0 8.0 65 3.2 W 11 17 6 9 1019.4 1019.4 0.0
25/08:30pm 15.5 12.2 8.0 61 3.8 WSW 15 22 8 12 1019.0 1018.9 0.0
25/08:00pm 16.3 12.6 7.8 57 4.3 SW 17 26 9 14 1018.4 1018.3 0.0
25/07:30pm 17.5 11.7 7.8 53 4.9 SW 28 39 15 21 1017.8 1017.7 0.0
25/07:00pm 18.7 12.4 7.2 47 5.8 WSW 30 41 16 22 1017.1 1017.0 0.0
25/06:30pm 19.3 13.3 7.1 45 6.2 WSW 28 41 15 22 1016.8 1016.7 0.0
25/06:00pm 19.8 13.1 7.2 44 6.4 SW 32 44 17 24 1016.6 1016.5 0.0
25/05:30pm 20.5 14.2 7.5 43 6.7 WSW 30 41 16 22 1016.4 1016.3 0.0
25/05:00pm 20.6 14.4 6.2 39 7.2 WSW 28 39 15 21 1016.5 1016.4 0.0
25/04:37pm 20.8 14.3 6.4 39 7.3 WSW 30 48 16 26 1016.4 1016.3 0.0
25/04:30pm 20.7 13.4 7.0 41 7.0 SW 35 48 19 26 1016.5 1016.4 0.0
25/04:20pm 20.7 14.3 7.0 41 7.0 WSW 30 48 16 26 1016.5 1016.4 0.0
25/04:00pm 21.3 15.1 7.9 42 7.0 WSW 30 44 16 24 1016.5 1016.4 0.0
25/03:30pm 20.8 14.0 7.8 43 6.7 WSW 33 50 18 27 1016.6 1016.5 0.0
25/03:12pm 20.6 14.0 7.6 43 6.7 WSW 32 50 17 27 1016.6 1016.5 0.0
25/03:00pm 20.5 13.7 7.5 43 6.7 SW 33 48 18 26 1016.6 1016.5 0.0
25/02:30pm 20.8 14.1 7.4 42 6.9 WSW 32 41 17 22 1016.7 1016.6 0.0
25/02:00pm 20.2 13.9 9.7 51 5.6 SW 33 48 18 26 1016.7 1016.6 0.0
25/01:31pm 21.1 15.4 8.4 44 6.7 WSW 28 46 15 25 1016.6 1016.5 0.0
25/01:30pm 20.3 14.1 8.0 45 6.4 WSW 30 46 16 25 1016.6 1016.5 0.0
25/01:07pm 20.4 14.1 7.4 43 6.7 WSW 30 48 16 26 1016.7 1016.6 0.0
25/01:00pm 20.1 13.2 7.1 43 6.6 WSW 33 48 18 26 1016.8 1016.7 0.0
25/12:30pm 20.0 13.2 7.7 45 6.3 W 33 52 18 28 1016.6 1016.5 0.0
25/12:00pm 18.7 10.3 7.2 47 5.8 WSW 41 59 22 32 1016.8 1016.7 0.0
25/11:30am 18.3 10.5 6.5 46 5.9 WSW 37 56 20 30 1016.8 1016.7 0.0
25/11:11am 19.2 11.5 7.3 46 6.0 W 37 56 20 30 1016.4 1016.3 0.0
25/11:00am 18.2 11.0 7.6 50 5.4 WSW 35 50 19 27 1016.4 1016.3 0.0
25/10:30am 17.8 9.7 7.2 50 5.3 W 39 54 21 29 1016.2 1016.1 0.0
25/10:00am 17.7 10.3 6.9 49 5.4 W 35 48 19 26 1015.9 1015.8 0.0
25/09:43am 17.2 10.6 6.1 48 5.4 W 30 50 16 27 1015.8 1015.7 0.0
25/09:30am 16.6 11.3 7.0 53 4.8 W 24 39 13 21 1015.8 1015.7 0.0
25/09:00am 15.2 10.0 5.4 52 4.7 WNW 22 37 12 20 1015.6 1015.5 11.8
25/08:30am 15.6 10.1 6.1 53 4.6 W 24 35 13 19 1015.2 1015.1 11.8
25/08:00am 14.5 9.9 5.8 56 4.1 W 19 33 10 18 1015.0 1014.9 11.8
25/07:30am 13.4 8.7 5.1 57 3.9 WNW 19 24 10 13 1014.7 1014.6 11.8
25/07:00am 11.1 8.0 5.6 69 2.5 WNW 11 13 6 7 1014.5 1014.4 11.8
25/06:30am 10.0 6.3 4.6 69 2.4 WNW 13 17 7 9 1013.9 1013.8 11.8
25/06:00am 9.8 5.7 4.4 69 2.4 W 15 20 8 11 1013.6 1013.5 11.8
25/05:30am 10.9 5.9 4.6 65 2.8 W 20 30 11 16 1013.0 1012.9 11.8
25/05:00am 11.5 5.4 4.9 64 3.0 W 26 35 14 19 1012.7 1012.6 11.8
25/04:30am 11.4 6.3 5.9 69 2.6 W 22 33 12 18 1012.4 1012.3 11.8
25/04:00am 11.4 6.8 6.5 72 2.3 W 20 30 11 16 1012.0 1011.9 11.8
25/03:30am 11.5 7.2 7.2 75 2.1 W 19 28 10 15 1011.9 1011.8 11.8
25/03:00am 11.7 5.1 7.6 76 2.0 WSW 32 41 17 22 1011.6 1011.5 11.8
25/02:34am 12.1 6.0 8.4 78 1.8 WSW 30 50 16 27 1011.2 1011.1 11.8
25/02:30am 12.2 7.0 8.7 79 1.7 WSW 26 43 14 23 1011.3 1011.2 11.8
25/02:00am 12.2 8.2 9.0 81 1.6 W 20 32 11 17 1011.5 1011.4 11.8
25/01:30am 12.5 9.1 9.3 81 1.6 WSW 17 24 9 13 1011.4 1011.3 11.8
25/01:00am 12.8 8.9 9.3 79 1.8 W 20 26 11 14 1011.6 1011.5 11.8
25/12:30am 12.9 9.2 9.5 80 1.7 W 19 26 10 14 1011.6 1011.5 11.8
25/12:00am 13.0 8.4 9.8 81 1.6 WSW 24 37 13 20 1011.5 1011.4 11.8
 
Date/Time
EDT
Temp
°C
App
Temp
°C
Dew
Point
Rel
Hum
%
Delta-T
°C
Wind Press
QNH
hPa
Press
MSL
hPa
Rain
since 9 am
mm
Dir
 
Spd
km/h
Gust
km/h
Spd
kts
Gust
kts
24/11:30pm 13.1 7.9 10.1 82 1.6 WSW 28 37 15 20 1011.4 1011.3 11.8
24/11:00pm 13.5 7.8 11.2 86 1.2 W 32 46 17 25 1011.4 1011.3 11.8
24/10:51pm 13.5 6.6 11.6 88 1.0 W 39 46 21 25 1011.0 1010.9 11.8
24/10:30pm 14.2 12.0 13.4 95 0.4 W 17 28 9 15 1010.9 1010.8 11.8
24/10:00pm 14.5 12.6 14.3 99 0.1 W 17 22 9 12 1010.5 1010.4 11.8
24/09:30pm 14.6 13.5 14.4 99 0.1 WSW 13 19 7 10 1009.8 1009.7 11.6
24/09:00pm 14.5 12.1 14.3 99 0.1 SSW 20 28 11 15 1009.0 1008.9 11.6
24/08:58pm 14.5 12.1 14.3 99 0.1 SSW 20 28 11 15 1008.9 1008.8 11.6
24/08:54pm 14.5 11.7 14.3 99 0.1 SW 22 32 12 17 1009.1 1009.0 11.6
24/08:33pm 15.4 11.0 15.1 98 0.2 WSW 32 46 17 25 1008.7 1008.6 10.6
24/08:31pm 15.5 11.9 15.2 98 0.2 W 28 44 15 24 1008.5 1008.4 10.4
24/08:30pm 15.6 12.0 15.3 98 0.2 W 28 41 15 22 1008.5 1008.4 10.2
24/08:29pm 15.6 12.0 15.3 98 0.2 W 28 41 15 22 1008.3 1008.3 10.0
24/08:00pm 16.7 15.4 16.7 100 0.0 SW 19 35 10 19 1007.1 1007.1 9.2
24/07:53pm 16.8 14.6 16.8 100 0.0 SW 24 35 13 19 1007.1 1007.1 9.2
24/07:30pm 16.6 16.3 16.4 99 0.1 WSW 13 15 7 8 1006.5 1006.5 9.2
24/07:14pm 16.6 17.4 16.4 99 0.1 SSW 7 13 4 7 1005.8 1005.8 9.0
24/07:00pm 16.6 17.6 16.4 99 0.1 SW 6 7 3 4 1005.3 1005.3 9.0
24/06:55pm 16.5 17.3 16.3 99 0.1 WSW 7 15 4 8 1005.4 1005.4 9.0
24/06:30pm 16.4 14.3 16.2 99 0.1 ENE 22 35 12 19 1003.6 1003.6 9.0
24/06:16pm 16.5 14.8 16.3 99 0.1 NE 20 28 11 15 1004.2 1004.2 8.4
24/06:00pm 16.9 15.5 16.6 98 0.2 NE 19 22 10 12 1005.8 1005.8 7.0
24/05:48pm 17.1 17.2 16.5 96 0.4 N 11 15 6 8 1007.2 1007.2 4.2
24/05:30pm 17.2 16.0 16.2 94 0.6 ENE 17 24 9 13 1005.1 1005.1 2.8
24/05:02pm 18.0 18.4 16.2 89 1.1 S 9 13 5 7 1006.1 1006.1 1.8
24/05:00pm 18.0 18.4 16.2 89 1.1 S 9 11 5 6 1006.4 1006.4 1.6
24/04:44pm 18.1 18.3 15.7 86 1.4 SW 9 13 5 7 1007.0 1007.0 1.0
24/04:30pm 18.7 18.7 15.2 80 2.1 S 9 11 5 6 1007.1 1007.1 0.0
24/04:00pm 19.7 19.0 14.3 71 3.1 E 11 15 6 8 1006.9 1006.9 0.0
24/03:30pm 20.7 20.0 14.4 67 3.7 ENE 11 17 6 9 1006.9 1006.9 0.0
24/03:00pm 19.8 19.3 13.7 68 3.5 SSE 9 13 5 7 1007.5 1007.5 0.0
24/02:30pm 19.4 18.3 14.2 72 3.0 S 13 22 7 12 1007.7 1007.7 0.0
24/02:00pm 19.0 16.1 14.1 73 2.8 SSW 22 28 12 15 1008.3 1008.3 0.0

Other Formats:

Comma delimited format used in spreadsheet applications
http://www.bom.gov.au/fwo/IDV60801/IDV60801.94912.axf

JavaScript Object Notation format (JSON) in row-major order
http://www.bom.gov.au/fwo/IDV60801/IDV60801.94912.json